sensor_id;sensor_type;location;lat;lon;timestamp;pressure;altitude;pressure_sealevel;temperature;humidity
30897;BME280;64229;52.246;21.054;2022-10-26T00:02:07;100712.81;;;12.58;100.00
30897;BME280;64229;52.246;21.054;2022-10-26T00:04:32;100716.03;;;12.55;100.00
30897;BME280;64229;52.246;21.054;2022-10-26T00:06:57;100712.56;;;12.55;100.00
30897;BME280;64229;52.246;21.054;2022-10-26T00:09:23;100716.03;;;12.60;100.00
30897;BME280;64229;52.246;21.054;2022-10-26T00:11:48;100713.88;;;12.57;100.00
30897;BME280;64229;52.246;21.054;2022-10-26T00:14:13;100710.41;;;12.72;100.00
30897;BME280;64229;52.246;21.054;2022-10-26T00:16:38;100718.97;;;12.69;100.00
30897;BME280;64229;52.246;21.054;2022-10-26T00:19:04;100727.56;;;12.76;100.00
30897;BME280;64229;52.246;21.054;2022-10-26T00:21:29;100722.72;;;12.68;100.00
30897;BME280;64229;52.246;21.054;2022-10-26T00:23:54;100727.53;;;12.81;100.00
30897;BME280;64229;52.246;21.054;2022-10-26T00:26:19;100724.03;;;12.75;100.00
30897;BME280;64229;52.246;21.054;2022-10-26T00:28:45;100720.31;;;12.71;100.00
30897;BME280;64229;52.246;21.054;2022-10-26T00:31:14;100717.88;;;12.75;100.00
30897;BME280;64229;52.246;21.054;2022-10-26T00:33:40;100722.97;;;12.71;100.00
30897;BME280;64229;52.246;21.054;2022-10-26T00:36:05;100721.63;;;12.74;100.00
30897;BME280;64229;52.246;21.054;2022-10-26T00:38:33;100721.91;;;12.72;100.00
30897;BME280;64229;52.246;21.054;2022-10-26T00:40:58;100720.56;;;12.65;100.00
30897;BME280;64229;52.246;21.054;2022-10-26T00:45:50;100725.66;;;12.61;100.00
30897;BME280;64229;52.246;21.054;2022-10-26T00:48:24;100722.44;;;12.64;100.00
30897;BME280;64229;52.246;21.054;2022-10-26T00:50:51;100719.50;;;12.71;100.00
30897;BME280;64229;52.246;21.054;2022-10-26T00:53:18;100733.69;;;12.71;100.00
30897;BME280;64229;52.246;21.054;2022-10-26T00:55:46;100728.34;;;12.61;100.00
30897;BME280;64229;52.246;21.054;2022-10-26T00:58:13;100716.28;;;12.64;100.00
30897;BME280;64229;52.246;21.054;2022-10-26T01:00:40;100722.44;;;12.69;100.00
30897;BME280;64229;52.246;21.054;2022-10-26T01:03:06;100732.09;;;12.81;100.00
30897;BME280;64229;52.246;21.054;2022-10-26T01:05:33;100719.75;;;12.85;100.00
30897;BME280;64229;52.246;21.054;2022-10-26T01:08:01;100715.50;;;12.79;100.00
30897;BME280;64229;52.246;21.054;2022-10-26T01:10:27;100724.03;;;12.75;100.00
30897;BME280;64229;52.246;21.054;2022-10-26T01:12:54;100727.28;;;12.67;100.00
30897;BME280;64229;52.246;21.054;2022-10-26T01:15:23;100728.06;;;12.73;100.00
30897;BME280;64229;52.246;21.054;2022-10-26T01:18:05;100719.50;;;12.81;100.00
30897;BME280;64229;52.246;21.054;2022-10-26T01:20:59;100719.50;;;12.66;100.00
30897;BME280;64229;52.246;21.054;2022-10-26T01:23:48;100724.84;;;12.71;100.00
30897;BME280;64229;52.246;21.054;2022-10-26T01:26:56;100745.22;;;12.67;100.00
30897;BME280;64229;52.246;21.054;2022-10-26T01:29:49;100743.88;;;12.74;100.00
30897;BME280;64229;52.246;21.054;2022-10-26T01:35:12;100739.59;;;12.79;100.00
30897;BME280;64229;52.246;21.054;2022-10-26T01:37:45;100733.16;;;12.74;100.00
30897;BME280;64229;52.246;21.054;2022-10-26T01:40:18;100740.13;;;12.86;100.00
30897;BME280;64229;52.246;21.054;2022-10-26T01:42:48;100739.31;;;12.85;100.00
30897;BME280;64229;52.246;21.054;2022-10-26T01:45:17;100732.38;;;12.69;100.00
30897;BME280;64229;52.246;21.054;2022-10-26T01:47:43;100721.91;;;12.72;100.00
30897;BME280;64229;52.246;21.054;2022-10-26T01:50:10;100731.56;;;12.79;100.00
30897;BME280;64229;52.246;21.054;2022-10-26T01:52:36;100733.72;;;12.77;100.00
30897;BME280;64229;52.246;21.054;2022-10-26T01:55:04;100728.88;;;12.79;100.00
30897;BME280;64229;52.246;21.054;2022-10-26T01:57:32;100711.75;;;12.69;100.00
30897;BME280;64229;52.246;21.054;2022-10-26T02:00:07;100728.34;;;12.87;100.00
30897;BME280;64229;52.246;21.054;2022-10-26T02:13:28;100748.16;;;12.75;100.00
30897;BME280;64229;52.246;21.054;2022-10-26T02:16:19;100750.56;;;12.82;100.00
30897;BME280;64229;52.246;21.054;2022-10-26T02:19:09;100750.84;;;12.91;100.00
30897;BME280;64229;52.246;21.054;2022-10-26T02:21:43;100757.00;;;12.91;100.00
30897;BME280;64229;52.246;21.054;2022-10-26T02:24:11;100751.66;;;12.81;100.00
30897;BME280;64229;52.246;21.054;2022-10-26T02:26:38;100755.13;;;12.82;100.00
30897;BME280;64229;52.246;21.054;2022-10-26T02:29:07;100761.00;;;12.84;100.00
30897;BME280;64229;52.246;21.054;2022-10-26T02:31:35;100748.97;;;12.76;100.00
30897;BME280;64229;52.246;21.054;2022-10-26T02:34:06;100755.41;;;12.70;100.00
30897;BME280;64229;52.246;21.054;2022-10-26T02:36:34;100765.56;;;12.83;100.00
30897;BME280;64229;52.246;21.054;2022-10-26T02:39:03;100761.00;;;12.73;100.00
30897;BME280;64229;52.246;21.054;2022-10-26T02:41:31;100759.94;;;12.80;100.00
30897;BME280;64229;52.246;21.054;2022-10-26T02:46:44;100757.28;;;12.80;100.00
30897;BME280;64229;52.246;21.054;2022-10-26T02:49:10;100764.78;;;12.78;100.00
30897;BME280;64229;52.246;21.054;2022-10-26T02:51:39;100767.69;;;12.86;100.00
30897;BME280;64229;52.246;21.054;2022-10-26T02:54:18;100763.97;;;12.82;100.00
30897;BME280;64229;52.246;21.054;2022-10-26T02:56:55;100756.19;;;12.70;100.00
30897;BME280;64229;52.246;21.054;2022-10-26T02:59:22;100770.94;;;12.78;100.00
30897;BME280;64229;52.246;21.054;2022-10-26T03:01:50;100759.69;;;12.66;100.00
30897;BME280;64229;52.246;21.054;2022-10-26T03:04:15;100766.09;;;12.55;100.00
30897;BME280;64229;52.246;21.054;2022-10-26T03:06:41;100761.78;;;12.43;100.00
30897;BME280;64229;52.246;21.054;2022-10-26T03:09:06;100772.28;;;12.65;100.00
30897;BME280;64229;52.246;21.054;2022-10-26T03:11:31;100782.97;;;12.60;100.00
30897;BME280;64229;52.246;21.054;2022-10-26T03:13:56;100780.56;;;12.69;100.00
30897;BME280;64229;52.246;21.054;2022-10-26T03:16:22;100790.19;;;12.65;100.00
30897;BME280;64229;52.246;21.054;2022-10-26T03:18:47;100794.75;;;12.59;100.00
30897;BME280;64229;52.246;21.054;2022-10-26T03:21:12;100781.88;;;12.46;100.00
30897;BME280;64229;52.246;21.054;2022-10-26T03:23:37;100792.34;;;12.58;100.00
30897;BME280;64229;52.246;21.054;2022-10-26T03:26:03;100792.88;;;12.60;100.00
30897;BME280;64229;52.246;21.054;2022-10-26T03:28:28;100798.50;;;12.63;100.00
30897;BME280;64229;52.246;21.054;2022-10-26T03:30:53;100792.63;;;12.66;100.00
30897;BME280;64229;52.246;21.054;2022-10-26T03:33:19;100796.09;;;12.62;100.00
30897;BME280;64229;52.246;21.054;2022-10-26T03:35:44;100807.88;;;12.61;100.00
30897;BME280;64229;52.246;21.054;2022-10-26T03:38:09;100802.53;;;12.66;100.00
30897;BME280;64229;52.246;21.054;2022-10-26T03:40:35;100797.97;;;12.56;100.00
30897;BME280;64229;52.246;21.054;2022-10-26T03:43:00;100816.47;;;12.78;99.34
30897;BME280;64229;52.246;21.054;2022-10-26T03:45:26;100797.72;;;12.68;99.72
30897;BME280;64229;52.246;21.054;2022-10-26T03:47:51;100809.47;;;12.62;98.85
30897;BME280;64229;52.246;21.054;2022-10-26T03:50:19;100813.75;;;12.63;99.17
30897;BME280;64229;52.246;21.054;2022-10-26T03:52:48;100817.50;;;12.62;99.14
30897;BME280;64229;52.246;21.054;2022-10-26T03:55:13;100813.50;;;12.59;98.96
30897;BME280;64229;52.246;21.054;2022-10-26T03:57:43;100823.91;;;12.45;99.30
30897;BME280;64229;52.246;21.054;2022-10-26T04:00:14;100824.97;;;12.44;99.58
30897;BME280;64229;52.246;21.054;2022-10-26T04:02:40;100825.75;;;12.40;100.00
30897;BME280;64229;52.246;21.054;2022-10-26T04:05:06;100818.28;;;12.52;99.24
30897;BME280;64229;52.246;21.054;2022-10-26T04:07:32;100816.94;;;12.50;98.61
30897;BME280;64229;52.246;21.054;2022-10-26T04:09:57;100818.28;;;12.52;98.21
30897;BME280;64229;52.246;21.054;2022-10-26T04:12:22;100818.59;;;12.56;97.20
30897;BME280;64229;52.246;21.054;2022-10-26T04:14:48;100811.88;;;12.58;96.93
30897;BME280;64229;52.246;21.054;2022-10-26T04:17:13;100823.13;;;12.55;97.21
30897;BME280;64229;52.246;21.054;2022-10-26T04:19:38;100821.75;;;12.53;97.57
30897;BME280;64229;52.246;21.054;2022-10-26T04:22:03;100820.16;;;12.52;97.34
30897;BME280;64229;52.246;21.054;2022-10-26T04:24:29;100828.72;;;12.49;97.91
30897;BME280;64229;52.246;21.054;2022-10-26T04:26:54;100826.59;;;12.51;97.92
30897;BME280;64229;52.246;21.054;2022-10-26T04:29:19;100826.81;;;12.39;97.91
30897;BME280;64229;52.246;21.054;2022-10-26T04:31:45;100829.22;;;12.35;98.76
30897;BME280;64229;52.246;21.054;2022-10-26T04:34:10;100826.00;;;12.33;97.50
30897;BME280;64229;52.246;21.054;2022-10-26T04:36:35;100833.22;;;12.33;97.90
30897;BME280;64229;52.246;21.054;2022-10-26T04:39:00;100831.63;;;12.32;98.31
30897;BME280;64229;52.246;21.054;2022-10-26T04:41:26;100836.47;;;12.35;98.04
30897;BME280;64229;52.246;21.054;2022-10-26T04:43:51;100839.38;;;12.28;98.98
30897;BME280;64229;52.246;21.054;2022-10-26T04:46:16;100837.72;;;12.17;99.24
30897;BME280;64229;52.246;21.054;2022-10-26T04:48:42;100839.88;;;12.20;99.34
30897;BME280;64229;52.246;21.054;2022-10-26T04:51:07;100826.44;;;12.05;100.00
30897;BME280;64229;52.246;21.054;2022-10-26T04:53:32;100835.28;;;12.10;100.00
30897;BME280;64229;52.246;21.054;2022-10-26T04:55:59;100836.13;;;12.16;99.23
30897;BME280;64229;52.246;21.054;2022-10-26T04:58:28;100844.19;;;12.26;98.64
30897;BME280;64229;52.246;21.054;2022-10-26T05:00:54;100845.44;;;12.08;98.38
30897;BME280;64229;52.246;21.054;2022-10-26T05:03:19;100848.91;;;12.04;99.41
30897;BME280;64229;52.246;21.054;2022-10-26T05:05:45;100855.59;;;12.06;99.66
30897;BME280;64229;52.246;21.054;2022-10-26T05:08:12;100860.97;;;12.06;100.00
30897;BME280;64229;52.246;21.054;2022-10-26T05:10:37;100865.78;;;12.04;100.00
30897;BME280;64229;52.246;21.054;2022-10-26T05:13:03;100869.56;;;12.19;100.00
30897;BME280;64229;52.246;21.054;2022-10-26T05:15:28;100866.13;;;12.23;100.00
30897;BME280;64229;52.246;21.054;2022-10-26T05:18:04;100867.78;;;12.39;97.43
30897;BME280;64229;52.246;21.054;2022-10-26T05:20:31;100862.13;;;12.26;97.89
30897;BME280;64229;52.246;21.054;2022-10-26T05:22:57;100867.47;;;12.26;97.38
30897;BME280;64229;52.246;21.054;2022-10-26T05:25:24;100882.41;;;12.22;97.23
30897;BME280;64229;52.246;21.054;2022-10-26T05:27:49;100872.25;;;12.19;97.43
30897;BME280;64229;52.246;21.054;2022-10-26T05:30:15;100873.31;;;12.18;96.99
30897;BME280;64229;52.246;21.054;2022-10-26T05:32:40;100884.88;;;12.23;96.78
30897;BME280;64229;52.246;21.054;2022-10-26T05:35:05;100888.34;;;12.24;96.46
30897;BME280;64229;52.246;21.054;2022-10-26T05:37:31;100889.63;;;12.16;96.91
30897;BME280;64229;52.246;21.054;2022-10-26T05:39:56;100885.56;;;12.08;97.89
30897;BME280;64229;52.246;21.054;2022-10-26T05:42:21;100891.25;;;12.17;97.24
30897;BME280;64229;52.246;21.054;2022-10-26T05:44:47;100884.50;;;12.04;98.11
30897;BME280;64229;52.246;21.054;2022-10-26T05:47:12;100902.47;;;12.14;97.83
30897;BME280;64229;52.246;21.054;2022-10-26T05:49:37;100908.09;;;12.18;97.97
30897;BME280;64229;52.246;21.054;2022-10-26T05:52:04;100879.25;;;12.25;95.58
30897;BME280;64229;52.246;21.054;2022-10-26T05:54:29;100900.13;;;12.33;95.35
30897;BME280;64229;52.246;21.054;2022-10-26T05:56:55;100904.69;;;12.32;94.96
30897;BME280;64229;52.246;21.054;2022-10-26T05:59:20;100905.47;;;12.28;95.41
30897;BME280;64229;52.246;21.054;2022-10-26T06:04:37;100913.44;;;12.12;96.94
30897;BME280;64229;52.246;21.054;2022-10-26T06:07:24;100909.72;;;12.19;96.41
30897;BME280;64229;52.246;21.054;2022-10-26T06:09:49;100920.19;;;12.30;95.58
30897;BME280;64229;52.246;21.054;2022-10-26T06:12:15;100911.94;;;12.42;93.87
30897;BME280;64229;52.246;21.054;2022-10-26T06:14:40;100907.66;;;12.36;94.22
30897;BME280;64229;52.246;21.054;2022-10-26T06:17:18;100912.47;;;12.39;93.94
30897;BME280;64229;52.246;21.054;2022-10-26T06:19:56;100922.13;;;12.40;94.64
30897;BME280;64229;52.246;21.054;2022-10-26T06:27:47;100924.25;;;12.38;94.19
30897;BME280;64229;52.246;21.054;2022-10-26T06:30:15;100897.19;;;12.29;92.84
30897;BME280;64229;52.246;21.054;2022-10-26T06:32:45;100930.47;;;12.54;92.96
30897;BME280;64229;52.246;21.054;2022-10-26T06:35:23;100935.06;;;12.63;92.20
30897;BME280;64229;52.246;21.054;2022-10-26T06:37:49;100936.44;;;12.66;91.32
30897;BME280;64229;52.246;21.054;2022-10-26T06:40:17;100940.16;;;12.65;91.74
30897;BME280;64229;52.246;21.054;2022-10-26T06:42:42;100933.41;;;12.52;92.63
30897;BME280;64229;52.246;21.054;2022-10-26T06:45:13;100936.41;;;12.56;93.04
30897;BME280;64229;52.246;21.054;2022-10-26T06:47:50;100953.31;;;12.66;91.68
30897;BME280;64229;52.246;21.054;2022-10-26T06:50:26;100946.88;;;12.67;90.51
30897;BME280;64229;52.246;21.054;2022-10-26T06:55:42;100948.72;;;12.57;89.92
30897;BME280;64229;52.246;21.054;2022-10-26T06:58:12;100947.06;;;12.51;91.06
30897;BME280;64229;52.246;21.054;2022-10-26T07:00:40;100955.91;;;12.51;91.53
30897;BME280;64229;52.246;21.054;2022-10-26T07:03:05;100951.16;;;12.73;90.10
30897;BME280;64229;52.246;21.054;2022-10-26T07:05:31;100940.94;;;12.60;90.23
30897;BME280;64229;52.246;21.054;2022-10-26T07:07:56;100945.50;;;12.65;90.38
30897;BME280;64229;52.246;21.054;2022-10-26T07:10:21;100947.66;;;12.63;90.40
30897;BME280;64229;52.246;21.054;2022-10-26T07:12:46;100955.41;;;12.64;90.56
30897;BME280;64229;52.246;21.054;2022-10-26T07:15:12;100960.31;;;12.78;89.43
30897;BME280;64229;52.246;21.054;2022-10-26T07:17:46;100960.81;;;12.69;89.12
30897;BME280;64229;52.246;21.054;2022-10-26T07:20:17;100956.03;;;12.77;89.01
30897;BME280;64229;52.246;21.054;2022-10-26T07:22:43;100955.22;;;12.81;88.05
30897;BME280;64229;52.246;21.054;2022-10-26T07:25:08;100953.84;;;12.68;88.69
30897;BME280;64229;52.246;21.054;2022-10-26T07:27:34;100962.72;;;12.84;88.25
30897;BME280;64229;52.246;21.054;2022-10-26T07:29:59;100968.88;;;12.80;88.38
30897;BME280;64229;52.246;21.054;2022-10-26T07:32:25;100964.38;;;12.95;87.52
30897;BME280;64229;52.246;21.054;2022-10-26T07:34:50;100966.53;;;12.98;86.81
30897;BME280;64229;52.246;21.054;2022-10-26T07:37:15;100969.69;;;12.85;86.91
30897;BME280;64229;52.246;21.054;2022-10-26T07:39:41;100968.03;;;12.74;86.99
30897;BME280;64229;52.246;21.054;2022-10-26T07:42:06;100977.69;;;12.70;87.13
30897;BME280;64229;52.246;21.054;2022-10-26T07:44:31;100977.31;;;12.46;89.03
30897;BME280;64229;52.246;21.054;2022-10-26T07:46:57;100972.06;;;12.66;88.06
30897;BME280;64229;52.246;21.054;2022-10-26T07:49:22;100972.31;;;12.70;88.28
30897;BME280;64229;52.246;21.054;2022-10-26T07:51:47;100972.13;;;12.92;87.18
30897;BME280;64229;52.246;21.054;2022-10-26T07:54:13;100972.47;;;13.11;86.87
30897;BME280;64229;52.246;21.054;2022-10-26T07:56:38;100976.75;;;13.12;85.97
30897;BME280;64229;52.246;21.054;2022-10-26T07:59:04;100970.84;;;13.10;86.83
30897;BME280;64229;52.246;21.054;2022-10-26T08:01:29;100976.22;;;13.10;86.67
30897;BME280;64229;52.246;21.054;2022-10-26T08:03:54;100988.81;;;13.14;87.02
30897;BME280;64229;52.246;21.054;2022-10-26T08:06:21;100991.53;;;13.19;86.19
30897;BME280;64229;52.246;21.054;2022-10-26T08:08:47;100997.09;;;13.08;85.71
30897;BME280;64229;52.246;21.054;2022-10-26T08:11:13;100995.78;;;13.15;85.03
30897;BME280;64229;52.246;21.054;2022-10-26T08:13:38;100967.63;;;13.02;85.42
30897;BME280;64229;52.246;21.054;2022-10-26T08:16:04;101000.13;;;13.21;85.05
30897;BME280;64229;52.246;21.054;2022-10-26T08:18:30;101006.22;;;13.17;84.77
30897;BME280;64229;52.246;21.054;2022-10-26T08:21:04;101008.63;;;13.18;86.20
30897;BME280;64229;52.246;21.054;2022-10-26T08:23:30;101008.16;;;13.21;85.16
30897;BME280;64229;52.246;21.054;2022-10-26T08:25:59;101003.56;;;13.17;86.38
30897;BME280;64229;52.246;21.054;2022-10-26T08:28:25;101006.56;;;13.25;84.44
30897;BME280;64229;52.246;21.054;2022-10-26T08:30:50;101002.81;;;13.26;84.00
30897;BME280;64229;52.246;21.054;2022-10-26T08:33:15;101008.09;;;13.11;84.83
30897;BME280;64229;52.246;21.054;2022-10-26T08:35:41;101004.88;;;13.14;85.51
30897;BME280;64229;52.246;21.054;2022-10-26T08:38:06;101017.44;;;12.98;86.17
30897;BME280;64229;52.246;21.054;2022-10-26T08:40:34;101011.47;;;12.81;86.57
30897;BME280;64229;52.246;21.054;2022-10-26T08:43:04;101018.97;;;12.79;86.33
30897;BME280;64229;52.246;21.054;2022-10-26T08:45:35;101020.28;;;12.71;86.74
30897;BME280;64229;52.246;21.054;2022-10-26T08:48:15;101011.38;;;12.61;87.73
30897;BME280;64229;52.246;21.054;2022-10-26T08:50:53;101024.59;;;12.78;87.70
30897;BME280;64229;52.246;21.054;2022-10-26T08:53:35;101031.03;;;12.82;86.51
30897;BME280;64229;52.246;21.054;2022-10-26T08:56:09;101033.97;;;12.80;86.35
30897;BME280;64229;52.246;21.054;2022-10-26T08:58:40;101029.38;;;12.65;87.62
30897;BME280;64229;52.246;21.054;2022-10-26T09:01:08;101032.84;;;12.66;88.16
30897;BME280;64229;52.246;21.054;2022-10-26T09:03:33;101035.22;;;12.57;88.35
30897;BME280;64229;52.246;21.054;2022-10-26T09:09:01;101036.56;;;12.23;91.74
30897;BME280;64229;52.246;21.054;2022-10-26T09:14:10;101044.75;;;11.79;96.47
30897;BME280;64229;52.246;21.054;2022-10-26T09:24:30;101050.47;;;11.82;97.04
30897;BME280;64229;52.246;21.054;2022-10-26T09:27:03;101048.44;;;11.95;95.99
30897;BME280;64229;52.246;21.054;2022-10-26T09:29:42;101041.16;;;11.90;95.28
30897;BME280;64229;52.246;21.054;2022-10-26T09:32:23;101053.34;;;12.08;94.41
30897;BME280;64229;52.246;21.054;2022-10-26T09:34:52;101058.22;;;12.16;94.08
30897;BME280;64229;52.246;21.054;2022-10-26T09:37:25;101064.84;;;12.08;94.63
30897;BME280;64229;52.246;21.054;2022-10-26T09:39:57;101064.66;;;12.20;93.86
30897;BME280;64229;52.246;21.054;2022-10-26T09:45:00;101078.09;;;12.25;94.32
30897;BME280;64229;52.246;21.054;2022-10-26T09:47:33;101076.97;;;12.21;93.62
30897;BME280;64229;52.246;21.054;2022-10-26T09:50:06;101083.75;;;12.29;93.04
30897;BME280;64229;52.246;21.054;2022-10-26T09:52:39;101082.66;;;12.30;93.16
30897;BME280;64229;52.246;21.054;2022-10-26T09:55:04;101083.84;;;12.44;92.26
30897;BME280;64229;52.246;21.054;2022-10-26T09:57:30;101082.28;;;12.53;91.60
30897;BME280;64229;52.246;21.054;2022-10-26T09:59:56;101091.13;;;12.54;90.87
30897;BME280;64229;52.246;21.054;2022-10-26T10:02:32;101083.28;;;12.42;90.57
30897;BME280;64229;52.246;21.054;2022-10-26T10:04:58;101077.13;;;12.41;91.05
30897;BME280;64229;52.246;21.054;2022-10-26T10:07:23;101087.69;;;12.58;91.10
30897;BME280;64229;52.246;21.054;2022-10-26T10:10:07;101082.34;;;12.63;90.12
30897;BME280;64229;52.246;21.054;2022-10-26T10:12:33;101085.59;;;12.65;89.80
30897;BME280;64229;52.246;21.054;2022-10-26T10:14:58;101094.13;;;12.57;90.55
30897;BME280;64229;52.246;21.054;2022-10-26T10:17:24;101091.25;;;12.74;89.78
30897;BME280;64229;52.246;21.054;2022-10-26T10:19:50;101081.06;;;12.71;89.41
30897;BME280;64229;52.246;21.054;2022-10-26T10:24:53;101069.66;;;12.96;88.16
30897;BME280;64229;52.246;21.054;2022-10-26T10:27:19;101082.78;;;12.92;88.15
30897;BME280;64229;52.246;21.054;2022-10-26T10:29:46;101077.22;;;12.99;88.16
30897;BME280;64229;52.246;21.054;2022-10-26T10:34:45;101085.09;;;13.21;86.26
30897;BME280;64229;52.246;21.054;2022-10-26T10:37:30;101083.91;;;13.07;87.15
30897;BME280;64229;52.246;21.054;2022-10-26T10:40:02;101081.25;;;13.07;87.88
30897;BME280;64229;52.246;21.054;2022-10-26T10:42:32;101083.53;;;13.30;87.21
30897;BME280;64229;52.246;21.054;2022-10-26T10:44:59;101080.75;;;13.15;87.11
30897;BME280;64229;52.246;21.054;2022-10-26T10:47:28;101082.41;;;13.21;86.39
30897;BME280;64229;52.246;21.054;2022-10-26T10:50:02;101071.47;;;13.38;86.39
30897;BME280;64229;52.246;21.054;2022-10-26T10:52:30;101073.94;;;13.59;84.95
30897;BME280;64229;52.246;21.054;2022-10-26T10:55:20;101064.28;;;13.64;84.53
30897;BME280;64229;52.246;21.054;2022-10-26T10:58:16;101069.69;;;13.74;84.37
30897;BME280;64229;52.246;21.054;2022-10-26T11:00:47;101072.63;;;13.72;85.12
30897;BME280;64229;52.246;21.054;2022-10-26T11:06:18;101070.50;;;14.05;82.70
30897;BME280;64229;52.246;21.054;2022-10-26T11:09:06;101061.09;;;14.02;83.03
30897;BME280;64229;52.246;21.054;2022-10-26T11:11:38;101075.31;;;14.08;83.27
30897;BME280;64229;52.246;21.054;2022-10-26T11:14:13;101075.31;;;14.08;82.02
30897;BME280;64229;52.246;21.054;2022-10-26T11:16:46;101072.91;;;14.06;81.78
30897;BME280;64229;52.246;21.054;2022-10-26T11:21:51;101082.03;;;14.10;82.25
30897;BME280;64229;52.246;21.054;2022-10-26T11:24:30;101085.25;;;14.28;81.59
30897;BME280;64229;52.246;21.054;2022-10-26T11:27:14;101086.03;;;14.33;81.05
30897;BME280;64229;52.246;21.054;2022-10-26T11:30:04;101084.44;;;14.32;81.71
30897;BME280;64229;52.246;21.054;2022-10-26T11:32:42;101082.84;;;14.36;80.84
30897;BME280;64229;52.246;21.054;2022-10-26T11:35:19;101089.28;;;14.45;79.53
30897;BME280;64229;52.246;21.054;2022-10-26T11:38:01;101085.78;;;14.40;80.66
30897;BME280;64229;52.246;21.054;2022-10-26T11:40:44;101090.06;;;14.46;80.18
30897;BME280;64229;52.246;21.054;2022-10-26T11:43:17;101085.25;;;14.53;79.53
30897;BME280;64229;52.246;21.054;2022-10-26T11:48:53;101098.41;;;14.24;81.04
30897;BME280;64229;52.246;21.054;2022-10-26T11:53:55;101090.34;;;14.19;80.91
30897;BME280;64229;52.246;21.054;2022-10-26T11:56:31;101097.06;;;14.16;81.14
30897;BME280;64229;52.246;21.054;2022-10-26T11:58:58;101104.84;;;14.18;81.36
30897;BME280;64229;52.246;21.054;2022-10-26T12:01:24;101096.50;;;14.25;80.88
30897;BME280;64229;52.246;21.054;2022-10-26T12:03:52;101094.38;;;14.22;81.02
30897;BME280;64229;52.246;21.054;2022-10-26T12:06:24;101093.59;;;14.06;81.48
30897;BME280;64229;52.246;21.054;2022-10-26T12:09:07;101106.47;;;14.09;82.06
30897;BME280;64229;52.246;21.054;2022-10-26T12:14:19;101103.50;;;14.10;82.34
30897;BME280;64229;52.246;21.054;2022-10-26T12:17:07;101109.69;;;14.21;81.99
30897;BME280;64229;52.246;21.054;2022-10-26T12:20:02;101103.25;;;14.27;82.47
30897;BME280;64229;52.246;21.054;2022-10-26T12:22:33;101105.13;;;14.32;82.10
30897;BME280;64229;52.246;21.054;2022-10-26T12:40:45;101113.19;;;14.67;78.80
30897;BME280;64229;52.246;21.054;2022-10-26T12:45:40;101113.72;;;14.59;78.57
30897;BME280;64229;52.246;21.054;2022-10-26T12:48:39;101113.69;;;14.44;79.95
30897;BME280;64229;52.246;21.054;2022-10-26T12:54:14;101114.78;;;14.17;80.51
30897;BME280;64229;52.246;21.054;2022-10-26T12:56:57;101115.31;;;14.19;80.09
30897;BME280;64229;52.246;21.054;2022-10-26T12:59:37;101108.31;;;14.24;80.33
30897;BME280;64229;52.246;21.054;2022-10-26T13:07:38;101107.00;;;14.26;80.02
30897;BME280;64229;52.246;21.054;2022-10-26T13:10:18;101110.50;;;14.16;80.34
30897;BME280;64229;52.246;21.054;2022-10-26T13:12:51;101107.53;;;13.98;81.63
30897;BME280;64229;52.246;21.054;2022-10-26T13:15:23;101116.94;;;14.05;81.37
30897;BME280;64229;52.246;21.054;2022-10-26T13:18:13;101108.09;;;14.05;81.32
30897;BME280;64229;52.246;21.054;2022-10-26T13:21:08;101107.50;;;13.93;81.75
30897;BME280;64229;52.246;21.054;2022-10-26T13:23:38;101110.47;;;13.96;81.66
30897;BME280;64229;52.246;21.054;2022-10-26T13:26:10;101116.13;;;13.95;81.53
30897;BME280;64229;52.246;21.054;2022-10-26T13:31:12;101097.34;;;13.95;82.02
30897;BME280;64229;52.246;21.054;2022-10-26T13:33:42;101107.78;;;14.01;81.78
30897;BME280;64229;52.246;21.054;2022-10-26T13:36:19;101109.66;;;14.01;81.90
30897;BME280;64229;52.246;21.054;2022-10-26T13:38:47;101113.44;;;14.00;81.75
30897;BME280;64229;52.246;21.054;2022-10-26T13:41:33;101114.22;;;14.00;81.37
30897;BME280;64229;52.246;21.054;2022-10-26T13:44:04;101117.47;;;13.97;81.97
30897;BME280;64229;52.246;21.054;2022-10-26T13:46:34;101120.44;;;14.06;81.51
30897;BME280;64229;52.246;21.054;2022-10-26T13:49:06;101121.50;;;14.05;81.88
30897;BME280;64229;52.246;21.054;2022-10-26T13:51:46;101121.50;;;14.10;80.90
30897;BME280;64229;52.246;21.054;2022-10-26T13:57:00;101127.94;;;14.09;80.81
30897;BME280;64229;52.246;21.054;2022-10-26T13:59:29;101127.91;;;14.14;80.31
30897;BME280;64229;52.246;21.054;2022-10-26T14:02:21;101119.34;;;14.07;79.94
30897;BME280;64229;52.246;21.054;2022-10-26T14:04:58;101119.59;;;13.95;80.61
30897;BME280;64229;52.246;21.054;2022-10-26T14:07:35;101112.88;;;13.77;81.01
30897;BME280;64229;52.246;21.054;2022-10-26T14:10:04;101133.25;;;13.78;81.49
30897;BME280;64229;52.246;21.054;2022-10-26T14:12:30;101131.41;;;13.84;80.36
30897;BME280;64229;52.246;21.054;2022-10-26T14:15:37;101125.19;;;13.78;80.94
30897;BME280;64229;52.246;21.054;2022-10-26T14:18:14;101110.22;;;13.82;79.89
30897;BME280;64229;52.246;21.054;2022-10-26T14:20:47;101116.59;;;13.71;80.20
30897;BME280;64229;52.246;21.054;2022-10-26T14:23:36;101123.00;;;13.60;80.55
30897;BME280;64229;52.246;21.054;2022-10-26T14:26:26;101120.88;;;13.57;80.49
30897;BME280;64229;52.246;21.054;2022-10-26T14:28:59;101129.16;;;13.45;81.43
30897;BME280;64229;52.246;21.054;2022-10-26T14:33:51;101124.16;;;13.17;82.46